Park Ridge, IL

5:52 AM CDT en Agosto 27, 2014 (GMT -0500)
Du Page | Change Station
CLOSE
Current Station
Aeropuerto
Location: Chicago DuPage,
Altura: 758 ft
Estaciones meteorológicas cercanas

Alt 758 ft 41.90 °N, 88.25 °W | Updated 1 hour ago

Scattered Clouds
Nubes dispersas
66 ° F
Sensación térmica 66 ° F
N
6
Viento Variable Viento desde NNE

Hoy
Alta -- | Baja -- ° F
--% Posibilidad de precipitaciones
Ayer
Alta -- | Baja -- ° F
Precip. -- pul
6:11 AM 7:33 PM
Creciente, 3% visible
Presión 30.11 pul
Visibilidad 10.0 Millas
Nubes Nubes dispersas 3900 ft
Punto de rocío 62 ° F
Humedad 87%
Precipitaciones 0.00 pul
Espesor de la nieve No disponible.
UV 0 de una escala de 12
Polen 9.00 de una escala de 12
Ozono Buena
PM2.5 Moderada
Flu Activity No disponible.
METAR KDPA 270952Z 02005KT 10SM SCT039 19/17 A3012 RMK AO2 SLP194 T01890167

More Conditions Fewer Conditions

Presión 30.11 pul
Visibilidad 10.0 Millas
Nubes Nubes dispersas 3900 ft
Punto de rocío 62 ° F
Humedad 87%
Precipitaciones 0.00 pul
Espesor de la nieve No disponible.
UV 0 de una escala de 12
Polen 9.00 de una escala de 12
Ozono Buena
PM2.5 Moderada
Flu Activity No disponible.
METAR KDPA 270952Z 02005KT 10SM SCT039 19/17 A3012 RMK AO2 SLP194 T01890167

More Conditions Fewer Conditions

10-Day Weather Forecast

Almanac

Astronomía

Aug. 27, 2014 Salida Puesta
Hora real 6:11 AM CDT 7:33 PM CDT
Crepúsculo civil 5:42 AM CDT 8:02 PM CDT
Crepúsculo náutico 5:07 AM CDT 8:37 PM CDT
Crepúsculo astronómico 4:30 AM CDT 9:13 PM CDT
Luna 8:10 AM CDT 8:22 PM CDT
Horas de luz 14h 19m
Horas de luz
13h 21m
Tomorrow will be 2m 40s shorter.
Creciente, 3% of the Moon is Illuminated
Hoy
Creciente
Sep 2
Cuarto creciente
Sep 8
Luna llena
Sep 15
Cuarto menguante
Sep 24
Nueva

Extremos de hoy

Máximos del estado Bajos del estado

Community

WunderPhotos

Upload Photos

1,747,666 ¡fotos cargadas!

Nearby

Calidad del aire

  Calidad del aire Índice AQ Contaminante
Ayer Moderada
PM2.5
Ayer Buena
OZONE
Real Moderada
PM2.5
Real Buena
OZONE
Miércoles Moderada
PM2.5

Grosos de nieve

Estación Profundido Altura
No tenemos constancia de nieve nueva.

Actividad de terremotos

Ciudad Distance Mag. Tiempo y dato
No hay informes recientes de la actividad sísmica.
Magnitud mínima muestra es 2,5.

Temperaturas de aguas costeras

Lugar Temperatura
Sin partes meteorológicos de las estaciones

Estaciones meteorológicas cercanas